Search for airport 
image banner adimage banner adimage banner ad
image banner ad

36PN - Us Army Reserve Center

Located in Edgemont, United States

ICAO - 36PN, IATA -

Data provided by Airmate  

General information

Coordinates: N39°58'0" W75°27'9"
Elevation is 480 feet MSL.
Magnetic variation is -11° East
View others Airports in Pennsylvania

Operational data

Special qualification required
Current time UTC:
Current local time:
Weather at : KOQN - Brandywine ( 11 km )
METAR: KOQN 150535Z AUTO 00000KT 10SM -RA BKN043 OVC049 18/17 A2982 RMK AO2 P0002 LTG DSNT SE AND SW
View NOTAMs / SUP AIP / TFR affecting this airport [VIEW]
Communications frequencies: [VIEW]

Runways:

Airport contact information

Address: Edgemont United States

Satellite view of 36PN